createdAt,value
2022-12-13T00:02:01.561Z,119.47
2022-12-13T00:04:28.929Z,107.55
2022-12-13T00:06:56.303Z,117.13
2022-12-13T00:09:23.996Z,120.80
2022-12-13T00:11:52.192Z,133.10
2022-12-13T00:14:19.459Z,126.22
2022-12-13T00:16:47.375Z,135.75
2022-12-13T00:19:15.127Z,126.85
2022-12-13T00:21:42.310Z,132.77
2022-12-13T00:24:09.446Z,143.15
2022-12-13T00:26:36.723Z,130.82
2022-12-13T00:29:05.257Z,121.45
2022-12-13T00:34:20.202Z,128.95
2022-12-13T00:36:48.229Z,124.50
2022-12-13T00:39:16.571Z,131.25
2022-12-13T00:41:44.944Z,135.65
2022-12-13T00:44:13.103Z,129.70
2022-12-13T00:46:40.455Z,132.50
2022-12-13T00:49:07.679Z,132.73
2022-12-13T00:51:35.319Z,141.25
2022-12-13T00:54:02.831Z,121.68
2022-12-13T00:56:31.943Z,114.88
2022-12-13T00:58:59.612Z,119.25
2022-12-13T01:01:28.635Z,120.50
2022-12-13T01:03:57.007Z,138.77
2022-12-13T01:06:29.634Z,128.38
2022-12-13T01:08:56.977Z,126.78
2022-12-13T01:11:24.739Z,119.85
2022-12-13T01:13:52.161Z,117.55
2022-12-13T01:16:19.405Z,113.43
2022-12-13T01:18:46.594Z,129.90
2022-12-13T01:21:18.176Z,113.82
2022-12-13T01:23:45.689Z,124.75
2022-12-13T01:26:19.985Z,130.98
2022-12-13T01:28:47.505Z,121.00
2022-12-13T01:31:15.795Z,110.43
2022-12-13T01:33:43.348Z,121.35
2022-12-13T01:36:12.400Z,120.93
2022-12-13T01:38:39.603Z,122.00
2022-12-13T01:41:08.988Z,140.85
2022-12-13T01:43:45.261Z,110.75
2022-12-13T01:46:12.923Z,126.35
2022-12-13T01:48:43.236Z,119.35
2022-12-13T01:51:12.016Z,122.25
2022-12-13T01:53:40.786Z,122.75
2022-12-13T01:56:11.131Z,116.65
2022-12-13T01:58:39.469Z,119.93
2022-12-13T02:01:06.944Z,129.20
2022-12-13T02:03:34.508Z,120.30
2022-12-13T02:06:03.211Z,122.30
2022-12-13T02:08:30.393Z,123.35
2022-12-13T02:11:04.099Z,132.60
2022-12-13T02:13:31.303Z,126.18
2022-12-13T02:16:05.850Z,121.00
2022-12-13T02:21:00.036Z,111.45
2022-12-13T02:23:30.384Z,114.38
2022-12-13T02:26:06.616Z,124.28
2022-12-13T02:28:48.329Z,122.15
2022-12-13T02:31:15.467Z,115.18
2022-12-13T02:33:49.163Z,127.18
2022-12-13T02:36:36.219Z,120.50
2022-12-13T02:39:11.364Z,122.65
2022-12-13T02:41:38.481Z,116.15
2022-12-13T02:44:22.033Z,136.43
2022-12-13T02:46:56.051Z,122.05
2022-12-13T02:49:24.623Z,119.00
2022-12-13T02:51:52.915Z,114.97
2022-12-13T02:54:20.108Z,132.18
2022-12-13T02:56:57.219Z,122.32
2022-12-13T02:59:26.148Z,124.13
2022-12-13T03:02:09.813Z,117.32
2022-12-13T03:05:16.581Z,112.38
2022-12-13T03:07:53.622Z,108.32
2022-12-13T03:10:23.577Z,123.85
2022-12-13T03:13:30.230Z,107.78
2022-12-13T03:15:59.242Z,129.38
2022-12-13T03:18:30.569Z,118.07
2022-12-13T03:20:59.471Z,119.57
2022-12-13T03:23:27.105Z,118.72
2022-12-13T03:25:56.144Z,127.28
2022-12-13T03:28:23.629Z,112.03
2022-12-13T03:30:50.838Z,113.22
2022-12-13T03:33:18.007Z,109.45
2022-12-13T03:35:46.023Z,106.15
2022-12-13T03:38:22.213Z,104.88
2022-12-13T03:40:51.223Z,113.97
2022-12-13T03:43:22.414Z,108.38
2022-12-13T03:45:50.460Z,107.60
2022-12-13T03:48:22.608Z,106.15
2022-12-13T03:50:51.205Z,122.18
2022-12-13T03:53:23.043Z,126.35
2022-12-13T03:56:00.836Z,98.68
2022-12-13T03:58:35.687Z,111.78
2022-12-13T04:01:05.735Z,106.10
2022-12-13T04:03:32.903Z,114.05
2022-12-13T04:06:00.019Z,109.25
2022-12-13T04:08:27.248Z,108.88
2022-12-13T04:10:54.379Z,106.75
2022-12-13T04:13:33.649Z,102.75
2022-12-13T04:16:04.123Z,112.10
2022-12-13T04:18:31.311Z,98.45
2022-12-13T04:20:58.460Z,117.00
2022-12-13T04:23:25.669Z,128.63
2022-12-13T04:25:53.013Z,120.20
2022-12-13T04:28:21.799Z,130.35
2022-12-13T04:30:53.413Z,119.50
2022-12-13T04:33:21.299Z,119.03
2022-12-13T04:35:48.757Z,127.25
2022-12-13T04:38:16.018Z,128.60
2022-12-13T04:40:43.176Z,125.97
2022-12-13T04:43:10.413Z,132.50
2022-12-13T04:45:37.618Z,131.20
2022-12-13T04:48:04.965Z,129.77
2022-12-13T04:50:32.126Z,143.35
2022-12-13T04:52:59.319Z,132.00
2022-12-13T04:55:26.445Z,136.27
2022-12-13T04:57:53.682Z,125.40
2022-12-13T05:00:22.495Z,130.45
2022-12-13T05:02:49.746Z,134.55
2022-12-13T05:05:17.566Z,123.22
2022-12-13T05:07:44.948Z,118.95
2022-12-13T05:10:12.141Z,129.00
2022-12-13T05:12:39.303Z,134.93
2022-12-13T05:15:07.004Z,127.57
2022-12-13T05:17:35.526Z,126.60
2022-12-13T05:20:03.188Z,118.78
2022-12-13T05:22:30.402Z,133.70
2022-12-13T05:24:57.519Z,126.53
2022-12-13T05:27:26.762Z,120.15
2022-12-13T05:30:03.809Z,136.02
2022-12-13T05:32:42.824Z,136.13
2022-12-13T05:35:23.195Z,131.73
2022-12-13T05:37:54.279Z,138.40
2022-12-13T05:40:22.711Z,135.32
2022-12-13T05:42:49.833Z,146.65
2022-12-13T05:45:18.389Z,120.82
2022-12-13T05:47:46.273Z,114.57
2022-12-13T05:50:13.856Z,120.38
2022-12-13T05:52:41.149Z,124.90
2022-12-13T05:55:08.468Z,133.13
2022-12-13T05:57:35.617Z,118.55
2022-12-13T06:00:02.884Z,124.97
2022-12-13T06:02:30.147Z,118.60
2022-12-13T06:04:57.396Z,119.55
2022-12-13T06:07:24.520Z,126.75
2022-12-13T06:09:51.688Z,131.68
2022-12-13T06:12:32.232Z,119.10
2022-12-13T06:15:01.119Z,110.88
2022-12-13T06:17:35.778Z,115.13
2022-12-13T06:20:03.602Z,107.38
2022-12-13T06:22:50.885Z,116.85
2022-12-13T06:25:30.709Z,120.25
2022-12-13T06:28:00.793Z,130.25
2022-12-13T06:30:28.517Z,126.20
2022-12-13T06:32:55.664Z,110.95
2022-12-13T06:35:29.625Z,115.10
2022-12-13T06:38:01.374Z,141.02
2022-12-13T06:40:30.350Z,151.63
2022-12-13T06:42:57.701Z,133.52
2022-12-13T06:45:24.903Z,146.00
2022-12-13T06:47:52.070Z,125.63
2022-12-13T06:50:19.277Z,140.25
2022-12-13T06:52:46.760Z,127.88
2022-12-13T06:55:13.980Z,130.35
2022-12-13T06:57:41.638Z,111.78
2022-12-13T07:00:09.591Z,120.45
2022-12-13T07:02:38.190Z,102.03
2022-12-13T07:05:05.815Z,121.15
2022-12-13T07:07:33.018Z,105.10
2022-12-13T07:10:00.241Z,111.78
2022-12-13T07:12:27.368Z,100.22
2022-12-13T07:14:55.128Z,100.97
2022-12-13T07:17:33.417Z,102.00
2022-12-13T07:20:02.160Z,98.65
2022-12-13T07:22:29.427Z,119.63
2022-12-13T07:25:03.259Z,103.47
2022-12-13T07:27:30.412Z,111.70
2022-12-13T07:29:58.005Z,112.18
2022-12-13T07:32:25.280Z,100.80
2022-12-13T07:34:52.440Z,103.93
2022-12-13T07:37:30.512Z,109.38
2022-12-13T07:40:03.373Z,110.78
2022-12-13T07:42:31.363Z,122.38
2022-12-13T07:44:58.530Z,111.80
2022-12-13T07:47:29.433Z,114.45
2022-12-13T07:49:56.600Z,104.38
2022-12-13T07:52:23.894Z,107.05
2022-12-13T07:54:51.104Z,100.82
2022-12-13T07:57:18.228Z,118.20
2022-12-13T07:59:45.371Z,112.75
2022-12-13T08:02:14.037Z,109.30
2022-12-13T08:04:43.155Z,116.70
2022-12-13T08:07:10.565Z,103.65
2022-12-13T08:09:37.975Z,117.05
2022-12-13T08:12:05.496Z,107.05
2022-12-13T08:14:32.786Z,115.28
2022-12-13T08:16:59.980Z,116.63
2022-12-13T08:19:27.365Z,76.18
2022-12-13T08:21:58.503Z,113.97
2022-12-13T08:24:29.678Z,114.63
2022-12-13T08:27:01.473Z,124.13
2022-12-13T08:29:33.617Z,108.60
2022-12-13T08:32:03.302Z,108.85
2022-12-13T08:34:31.717Z,114.18
2022-12-13T08:37:02.182Z,114.15
2022-12-13T08:39:37.646Z,97.38
2022-12-13T08:42:16.812Z,100.65
2022-12-13T08:44:46.074Z,94.97
2022-12-13T08:47:23.333Z,101.63
2022-12-13T08:49:52.389Z,116.65
2022-12-13T08:52:19.553Z,107.47
2022-12-13T08:54:46.764Z,110.07
2022-12-13T08:57:13.951Z,116.80
2022-12-13T08:59:41.116Z,99.65
2022-12-13T09:02:10.704Z,104.88
2022-12-13T09:04:37.987Z,107.28
2022-12-13T09:07:05.253Z,116.13
2022-12-13T09:09:32.482Z,103.35
2022-12-13T09:12:00.228Z,145.25
2022-12-13T09:14:34.007Z,101.85
2022-12-13T09:17:03.495Z,112.32
2022-12-13T09:19:37.131Z,116.97
2022-12-13T09:22:04.857Z,99.63
2022-12-13T09:24:36.723Z,102.78
2022-12-13T09:27:09.249Z,104.65
2022-12-13T09:29:37.598Z,103.90
2022-12-13T09:32:05.114Z,106.28
2022-12-13T09:34:35.247Z,109.93
2022-12-13T09:37:02.466Z,108.05
2022-12-13T09:39:29.979Z,117.50
2022-12-13T09:42:01.371Z,110.85
2022-12-13T09:44:42.721Z,102.95
2022-12-13T09:47:23.652Z,96.28
2022-12-13T09:49:53.631Z,108.55
2022-12-13T09:52:23.109Z,102.80
2022-12-13T09:54:54.877Z,111.03
2022-12-13T09:57:34.118Z,107.10
2022-12-13T10:00:06.811Z,102.60
2022-12-13T10:02:43.759Z,110.20
2022-12-13T10:05:22.464Z,99.60
2022-12-13T10:07:51.792Z,101.57
2022-12-13T10:10:19.085Z,89.68
2022-12-13T10:12:47.767Z,111.55
2022-12-13T10:15:22.060Z,97.43
2022-12-13T10:20:25.908Z,87.97
2022-12-13T10:23:30.090Z,96.75
2022-12-13T10:26:03.321Z,89.18
2022-12-13T10:28:35.288Z,89.97
2022-12-13T10:31:02.664Z,83.43
2022-12-13T10:33:40.829Z,97.72
2022-12-13T10:36:16.108Z,104.00
2022-12-13T10:38:46.863Z,93.45
2022-12-13T10:41:30.973Z,92.88
2022-12-13T10:44:08.530Z,92.45
2022-12-13T10:46:38.737Z,99.72
2022-12-13T10:49:16.292Z,92.10
2022-12-13T10:51:43.671Z,94.88
2022-12-13T10:54:38.972Z,86.85
2022-12-13T10:57:16.634Z,111.87
2022-12-13T10:59:44.926Z,93.25
2022-12-13T11:02:41.722Z,103.45
2022-12-13T11:05:28.639Z,86.80
2022-12-13T11:07:56.159Z,99.25
2022-12-13T11:10:29.446Z,99.35
2022-12-13T11:13:01.506Z,102.75
2022-12-13T11:15:32.435Z,91.93
2022-12-13T11:18:00.803Z,101.20
2022-12-13T11:20:29.643Z,102.25
2022-12-13T11:23:21.215Z,102.75
2022-12-13T11:25:48.885Z,104.88
2022-12-13T11:28:34.726Z,115.50
2022-12-13T11:31:08.024Z,96.85
2022-12-13T11:33:48.358Z,99.80
2022-12-13T11:36:22.059Z,106.93
2022-12-13T11:39:07.224Z,113.30
2022-12-13T11:41:40.244Z,111.05
2022-12-13T11:44:14.172Z,108.13
2022-12-13T11:46:42.841Z,118.97
2022-12-13T11:49:12.230Z,104.45
2022-12-13T11:51:51.729Z,93.18
2022-12-13T11:54:38.744Z,108.15
2022-12-13T11:57:11.171Z,108.82
2022-12-13T11:59:43.271Z,97.82
2022-12-13T12:02:20.062Z,111.85
2022-12-13T12:04:54.927Z,96.05
2022-12-13T12:07:36.644Z,107.82
2022-12-13T12:10:22.195Z,107.13
2022-12-13T12:12:57.054Z,112.40
2022-12-13T12:17:53.628Z,107.90
2022-12-13T12:20:24.814Z,106.05
2022-12-13T12:23:12.422Z,117.85
2022-12-13T12:25:42.669Z,107.93
2022-12-13T12:28:22.447Z,103.28
2022-12-13T12:31:08.874Z,110.43
2022-12-13T12:33:51.002Z,110.00
2022-12-13T12:36:22.172Z,99.60
2022-12-13T12:39:04.651Z,108.78
2022-12-13T12:41:43.563Z,95.28
2022-12-13T12:44:18.481Z,105.13
2022-12-13T12:47:29.117Z,100.72
2022-12-13T12:49:57.411Z,112.07
2022-12-13T12:52:44.774Z,104.78
2022-12-13T12:55:21.170Z,103.57
2022-12-13T12:57:54.270Z,101.78
2022-12-13T13:00:22.416Z,103.55
2022-12-13T13:03:01.700Z,97.85
2022-12-13T13:05:40.085Z,97.13
2022-12-13T13:08:12.650Z,103.45
2022-12-13T13:10:42.024Z,99.10
2022-12-13T13:13:46.698Z,98.50
2022-12-13T13:16:33.456Z,105.55
2022-12-13T13:19:02.171Z,102.88
2022-12-13T13:21:32.894Z,94.60
2022-12-13T13:24:03.035Z,99.32
2022-12-13T13:26:35.839Z,96.43
2022-12-13T13:29:27.194Z,105.05
2022-12-13T13:32:01.538Z,99.07
2022-12-13T13:34:33.865Z,100.95
2022-12-13T13:37:01.416Z,101.85
2022-12-13T13:39:28.545Z,103.28
2022-12-13T13:41:57.296Z,92.75
2022-12-13T13:44:34.878Z,98.68
2022-12-13T13:47:12.736Z,106.47
2022-12-13T13:49:43.873Z,102.40
2022-12-13T13:52:26.999Z,99.93
2022-12-13T13:55:17.682Z,106.47
2022-12-13T13:58:11.574Z,92.88
2022-12-13T14:00:59.103Z,103.88
2022-12-13T14:03:45.449Z,97.32
2022-12-13T14:06:12.712Z,100.75
2022-12-13T14:08:58.676Z,101.68
2022-12-13T14:11:25.830Z,93.43
2022-12-13T14:14:02.007Z,92.82
2022-12-13T14:16:47.785Z,99.85
2022-12-13T14:19:18.071Z,96.57
2022-12-13T14:22:03.648Z,97.70
2022-12-13T14:24:30.790Z,97.13
2022-12-13T14:27:16.503Z,101.43
2022-12-13T14:29:48.394Z,97.82
2022-12-13T14:32:30.016Z,87.60
2022-12-13T14:34:57.920Z,98.65
2022-12-13T14:37:31.970Z,94.57
2022-12-13T14:39:59.876Z,95.00
2022-12-13T14:42:30.200Z,95.43
2022-12-13T14:45:13.182Z,92.25
2022-12-13T14:47:41.534Z,92.40
2022-12-13T14:50:08.951Z,103.65
2022-12-13T14:52:39.567Z,97.13
2022-12-13T14:55:07.709Z,90.30
2022-12-13T14:57:35.611Z,97.28
2022-12-13T15:00:21.385Z,107.90
2022-12-13T15:02:52.765Z,103.10
2022-12-13T15:05:28.945Z,101.30
2022-12-13T15:07:56.652Z,104.03
2022-12-13T15:10:24.453Z,99.55
2022-12-13T15:12:52.604Z,108.20
2022-12-13T15:15:23.195Z,99.30
2022-12-13T15:17:50.579Z,102.93
2022-12-13T15:20:24.065Z,99.07
2022-12-13T15:22:57.501Z,95.80
2022-12-13T15:25:24.694Z,91.72
2022-12-13T15:27:53.000Z,97.03
2022-12-13T15:30:20.688Z,102.00
2022-12-13T15:33:08.036Z,96.13
2022-12-13T15:35:39.094Z,94.85
2022-12-13T15:38:09.420Z,100.97
2022-12-13T15:40:36.580Z,110.18
2022-12-13T15:43:03.780Z,103.45
2022-12-13T15:45:36.979Z,105.65
2022-12-13T15:48:04.886Z,100.63
2022-12-13T15:50:43.788Z,99.10
2022-12-13T15:53:27.159Z,106.43
2022-12-13T15:55:54.798Z,101.53
2022-12-13T15:58:40.095Z,110.47
2022-12-13T16:01:07.352Z,104.20
2022-12-13T16:03:45.232Z,107.32
2022-12-13T16:06:18.293Z,105.78
2022-12-13T16:08:49.515Z,101.63
2022-12-13T16:11:16.851Z,115.45
2022-12-13T16:13:47.548Z,113.15
2022-12-13T16:16:27.304Z,107.78
2022-12-13T16:18:56.879Z,99.03
2022-12-13T16:21:24.083Z,109.22
2022-12-13T16:23:51.264Z,118.45
2022-12-13T16:26:23.042Z,109.47
2022-12-13T16:28:50.232Z,100.05
2022-12-13T16:31:25.406Z,120.60
2022-12-13T16:33:52.778Z,122.50
2022-12-13T16:36:20.473Z,117.30
2022-12-13T16:38:47.715Z,107.88
2022-12-13T16:41:15.728Z,115.70
2022-12-13T16:43:59.629Z,111.93
2022-12-13T16:47:13.759Z,110.03
2022-12-13T16:49:22.279Z,111.53
2022-12-13T16:51:49.651Z,108.57
2022-12-13T16:54:17.471Z,118.50
2022-12-13T16:56:44.631Z,116.57
2022-12-13T16:59:16.061Z,106.93
2022-12-13T17:01:43.987Z,114.53
2022-12-13T17:04:20.176Z,106.32
2022-12-13T17:06:48.445Z,113.88
2022-12-13T17:09:15.664Z,107.78
2022-12-13T17:11:43.215Z,110.47
2022-12-13T17:14:10.711Z,106.07
2022-12-13T17:16:38.045Z,116.63
2022-12-13T17:19:05.286Z,107.95
2022-12-13T17:21:32.435Z,113.65
2022-12-13T17:24:00.551Z,112.07
2022-12-13T17:26:28.321Z,132.35
2022-12-13T17:28:55.723Z,126.20
2022-12-13T17:31:22.918Z,135.05
2022-12-13T17:33:50.143Z,129.25
2022-12-13T17:36:17.442Z,127.97
2022-12-13T17:38:47.706Z,122.20
2022-12-13T17:41:16.012Z,129.63
2022-12-13T17:43:44.114Z,125.80
2022-12-13T17:46:15.809Z,124.35
2022-12-13T17:48:44.152Z,122.50
2022-12-13T17:51:11.821Z,127.70
2022-12-13T17:53:39.673Z,121.28
2022-12-13T17:56:07.878Z,131.27
2022-12-13T17:58:35.440Z,128.52
2022-12-13T18:01:22.014Z,121.75
2022-12-13T18:03:49.531Z,126.10
2022-12-13T18:06:16.940Z,125.93
2022-12-13T18:08:44.664Z,131.35
2022-12-13T18:11:32.236Z,131.75
2022-12-13T18:13:59.893Z,117.68
2022-12-13T18:16:33.994Z,120.90
2022-12-13T18:19:03.968Z,116.68
2022-12-13T18:21:31.112Z,119.57
2022-12-13T18:23:59.728Z,115.82
2022-12-13T18:26:27.082Z,121.68
2022-12-13T18:28:54.261Z,117.40
2022-12-13T18:31:23.177Z,125.72
2022-12-13T18:33:51.392Z,128.20
2022-12-13T18:36:19.336Z,130.95
2022-12-13T18:38:46.658Z,117.07
2022-12-13T18:41:15.879Z,129.23
2022-12-13T18:43:43.617Z,112.78
2022-12-13T18:46:11.557Z,125.07
2022-12-13T18:48:38.814Z,126.43
2022-12-13T18:51:07.772Z,131.05
2022-12-13T18:53:35.557Z,128.10
2022-12-13T18:56:08.195Z,123.38
2022-12-13T18:58:39.314Z,118.20
2022-12-13T19:01:08.026Z,124.63
2022-12-13T19:03:37.075Z,121.97
2022-12-13T19:06:04.816Z,131.15
2022-12-13T19:08:31.999Z,121.03
2022-12-13T19:11:03.436Z,115.47
2022-12-13T19:13:30.906Z,130.45
2022-12-13T19:15:59.248Z,122.90
2022-12-13T19:18:27.009Z,123.70
2022-12-13T19:20:54.555Z,117.57
2022-12-13T19:23:21.708Z,122.60
2022-12-13T19:25:49.110Z,123.63
2022-12-13T19:28:17.578Z,125.22
2022-12-13T19:30:48.392Z,128.18
2022-12-13T19:33:15.924Z,120.25
2022-12-13T19:35:43.436Z,124.80
2022-12-13T19:38:11.068Z,111.38
2022-12-13T19:40:42.318Z,120.15
2022-12-13T19:43:09.575Z,114.50
2022-12-13T19:45:36.715Z,123.75
2022-12-13T19:48:04.332Z,116.53
2022-12-13T19:50:31.516Z,111.40
2022-12-13T19:52:58.694Z,115.15
2022-12-13T19:55:25.955Z,112.75
2022-12-13T19:57:53.327Z,113.07
2022-12-13T20:00:20.491Z,110.97
2022-12-13T20:02:47.832Z,106.90
2022-12-13T20:05:15.045Z,113.57
2022-12-13T20:07:42.640Z,110.95
2022-12-13T20:10:10.353Z,115.00
2022-12-13T20:12:40.916Z,108.22
2022-12-13T20:15:09.363Z,121.72
2022-12-13T20:17:36.917Z,113.28
2022-12-13T20:20:05.041Z,109.15
2022-12-13T20:22:33.211Z,116.28
2022-12-13T20:25:00.568Z,109.90
2022-12-13T20:27:28.001Z,107.70
2022-12-13T20:29:55.620Z,113.93
2022-12-13T20:32:22.832Z,129.57
2022-12-13T20:34:54.558Z,101.25
2022-12-13T20:37:22.331Z,101.90
2022-12-13T20:39:49.593Z,109.78
2022-12-13T20:42:16.767Z,119.68
2022-12-13T20:44:43.919Z,122.40
2022-12-13T20:47:11.406Z,118.57
2022-12-13T20:49:38.622Z,115.47
2022-12-13T20:52:05.912Z,107.93
2022-12-13T20:54:33.034Z,109.40
2022-12-13T20:57:00.212Z,118.85
2022-12-13T20:59:27.350Z,110.88
2022-12-13T21:01:54.573Z,120.60
2022-12-13T21:04:21.810Z,121.90
2022-12-13T21:06:49.006Z,125.45
2022-12-13T21:09:16.278Z,113.65
2022-12-13T21:11:44.810Z,119.88
2022-12-13T21:14:22.173Z,127.45
2022-12-13T21:16:51.413Z,125.00
2022-12-13T21:19:21.545Z,110.57
2022-12-13T21:21:50.198Z,106.70
2022-12-13T21:24:18.173Z,115.00
2022-12-13T21:26:45.790Z,120.38
2022-12-13T21:29:13.655Z,126.38
2022-12-13T21:31:41.563Z,115.53
2022-12-13T21:34:09.078Z,113.22
2022-12-13T21:36:40.486Z,116.93
2022-12-13T21:39:09.005Z,122.35
2022-12-13T21:41:36.191Z,121.13
2022-12-13T21:44:03.324Z,111.28
2022-12-13T21:47:09.776Z,112.95
2022-12-13T21:49:18.190Z,115.60
2022-12-13T21:51:48.231Z,112.05
2022-12-13T21:54:15.914Z,108.90
2022-12-13T21:57:01.822Z,102.68
2022-12-13T21:59:29.090Z,120.18
2022-12-13T22:02:13.079Z,112.88
2022-12-13T22:04:44.776Z,114.72
2022-12-13T22:07:13.737Z,106.70
2022-12-13T22:09:40.904Z,107.63
2022-12-13T22:12:29.266Z,122.43
2022-12-13T22:14:56.420Z,116.07
2022-12-13T22:17:28.273Z,118.68
2022-12-13T22:20:00.873Z,108.00
2022-12-13T22:22:28.371Z,102.65
2022-12-13T22:24:55.491Z,102.88
2022-12-13T22:27:26.079Z,101.18
2022-12-13T22:29:55.568Z,108.90
2022-12-13T22:32:22.835Z,109.30
2022-12-13T22:34:50.144Z,103.10
2022-12-13T22:37:17.613Z,103.82
2022-12-13T22:39:44.775Z,100.60
2022-12-13T22:42:12.300Z,99.75
2022-12-13T22:44:39.494Z,102.60
2022-12-13T22:47:06.985Z,104.50
2022-12-13T22:49:34.187Z,106.20
2022-12-13T22:52:01.334Z,104.47
2022-12-13T22:54:28.459Z,97.90
2022-12-13T22:56:55.732Z,103.20
2022-12-13T22:59:22.961Z,106.93
2022-12-13T23:01:50.171Z,99.50
2022-12-13T23:04:17.384Z,97.35
2022-12-13T23:06:44.641Z,95.57
2022-12-13T23:09:13.054Z,109.50
2022-12-13T23:11:58.928Z,104.85
2022-12-13T23:14:27.247Z,105.78
2022-12-13T23:16:54.474Z,99.90
2022-12-13T23:22:08.878Z,103.78
2022-12-13T23:24:36.320Z,110.60
2022-12-13T23:27:03.550Z,98.80
2022-12-13T23:29:31.299Z,104.40
2022-12-13T23:31:58.431Z,100.30
2022-12-13T23:34:25.661Z,98.30
2022-12-13T23:36:52.796Z,103.65
2022-12-13T23:39:19.990Z,106.25
2022-12-13T23:41:47.127Z,105.18
2022-12-13T23:44:14.272Z,93.57
2022-12-13T23:46:41.539Z,96.35
2022-12-13T23:49:15.822Z,103.63
2022-12-13T23:51:43.052Z,99.47
2022-12-13T23:54:16.234Z,99.85
2022-12-13T23:56:43.512Z,107.53
2022-12-13T23:59:10.698Z,100.18
